Time;durP1;ratioP1;P1;durP2;ratioP2;P2;SDS_P1;SDS_P2;PMS_P1;PMS_P2;Temp;Humidity;BMP_temperature;BMP_pressure;BME280_temperature;BME280_humidity;BME280_pressure;Samples;Min_cycle;Max_cycle;Signal;HPM_P1;HPM_P2
2022/10/23 00:01:15;;;;;;;10.20;4.20;;;21.80;70.30;;;;;;213519;1299;22819;-58
2022/10/23 00:06:21;;;;;;;7.80;3.80;;;21.80;70.40;;;;;;213415;1294;22466;-57
2022/10/23 00:11:27;;;;;;;9.90;4.30;;;21.80;70.10;;;;;;213518;1287;22722;-59
2022/10/23 00:16:30;;;;;;;8.60;3.90;;;21.80;70.50;;;;;;213538;1287;23235;-57
2022/10/23 00:21:34;;;;;;;8.20;3.80;;;21.70;70.40;;;;;;213691;1289;22486;-59
2022/10/23 00:26:39;;;;;;;8.10;3.90;;;21.70;70.40;;;;;;213485;1288;25377;-59
2022/10/23 00:31:42;;;;;;;9.30;3.80;;;21.70;70.30;;;;;;221495;1279;22330;-59
2022/10/23 00:36:46;;;;;;;10.30;4.20;;;21.70;70.30;;;;;;213816;1297;23085;-58
2022/10/23 00:41:49;;;;;;;8.30;3.50;;;21.70;70.30;;;;;;213258;1288;22863;-57
2022/10/23 00:46:53;;;;;;;11.00;4.50;;;21.60;70.20;;;;;;213477;1284;24251;-58
2022/10/23 00:52:00;;;;;;;9.90;4.00;;;21.60;70.30;;;;;;213389;1288;24257;-57
2022/10/23 00:57:06;;;;;;;23.70;5.40;;;21.60;70.30;;;;;;213610;1293;23090;-58
2022/10/23 01:02:10;;;;;;;9.80;3.90;;;21.50;70.30;;;;;;213501;1281;25210;-58
2022/10/23 01:07:37;;;;;;;12.30;4.00;;;21.50;70.30;;;;;;213678;1294;25486;-57
2022/10/23 01:12:52;;;;;;;7.70;3.60;;;21.50;70.30;;;;;;213348;1294;22525;-59
2022/10/23 01:18:01;;;;;;;8.20;3.60;;;21.50;70.30;;;;;;213602;1283;25538;-59
2022/10/23 01:23:16;;;;;;;10.40;4.10;;;21.40;70.20;;;;;;213382;1287;22512;-58
2022/10/23 01:28:27;;;;;;;8.20;3.80;;;21.40;70.20;;;;;;218731;1287;22844;-56
2022/10/23 01:33:33;;;;;;;;;;;21.40;70.20;;;;;;214798;1290;24277;-58
2022/10/23 01:38:58;;;;;;;6.30;3.70;;;21.40;70.00;;;;;;213432;1288;24221;-57
2022/10/23 01:44:19;;;;;;;10.10;3.50;;;21.40;70.00;;;;;;213257;1294;24309;-58
2022/10/23 01:49:23;;;;;;;8.50;3.50;;;21.30;70.00;;;;;;213348;1283;22721;-58
2022/10/23 01:54:37;;;;;;;9.90;3.80;;;21.30;70.00;;;;;;213510;1308;23852;-58
2022/10/23 01:59:48;;;;;;;8.10;3.90;;;21.30;69.90;;;;;;213289;1285;22482;-58
2022/10/23 02:05:26;;;;;;;6.30;3.30;;;21.30;70.30;;;;;;213501;1287;25205;-58
2022/10/23 02:10:50;;;;;;;8.10;3.60;;;21.20;69.90;;;;;;213614;1288;25948;-59
2022/10/23 02:16:22;;;;;;;8.10;3.50;;;21.30;70.00;;;;;;213529;1288;23074;-60
2022/10/23 02:21:37;;;;;;;18.10;5.20;;;21.20;70.00;;;;;;213399;1293;22564;-58
2022/10/23 02:26:47;;;;;;;6.00;3.60;;;21.20;70.30;;;;;;213410;1285;24816;-57
2022/10/23 02:31:51;;;;;;;9.60;3.80;;;21.20;70.00;;;;;;213538;1287;22841;-57
2022/10/23 02:36:55;;;;;;;11.80;3.80;;;21.10;70.00;;;;;;213659;1288;26470;-59
2022/10/23 02:42:20;;;;;;;6.10;3.30;;;21.10;70.10;;;;;;213678;1294;22935;-58
2022/10/23 02:47:36;;;;;;;4.60;3.30;;;21.10;70.10;;;;;;213654;1289;23098;-58
2022/10/23 02:53:05;;;;;;;6.40;3.40;;;21.10;70.10;;;;;;213597;1288;25339;-57
2022/10/23 02:58:27;;;;;;;8.70;4.00;;;21.10;70.10;;;;;;213267;1287;24018;-57
2022/10/23 03:03:36;;;;;;;5.80;2.80;;;21.00;70.10;;;;;;214528;1293;25723;-57
2022/10/23 03:08:51;;;;;;;5.80;3.20;;;21.00;70.00;;;;;;213384;1280;24013;-58
2022/10/23 03:13:55;;;;;;;5.60;3.20;;;21.00;70.10;;;;;;213654;1287;22592;-58
2022/10/23 03:18:58;;;;;;;5.20;3.20;;;21.00;70.10;;;;;;213597;1285;22604;-57
2022/10/23 03:24:02;;;;;;;4.50;2.80;;;21.00;70.50;;;;;;213458;1283;25370;-57
2022/10/23 03:29:13;;;;;;;4.30;2.90;;;20.90;70.10;;;;;;213570;1284;22491;-59
2022/10/23 03:34:19;;;;;;;5.00;3.10;;;20.90;70.00;;;;;;213491;1288;24279;-57
2022/10/23 03:39:23;;;;;;;5.20;3.00;;;20.90;70.00;;;;;;213639;1286;24674;-57
2022/10/23 03:44:26;;;;;;;5.60;3.00;;;20.90;70.00;;;;;;213699;1294;24247;-55
2022/10/23 03:49:32;;;;;;;6.90;3.30;;;20.90;70.10;;;;;;213512;1288;24273;-58
2022/10/23 03:54:39;;;;;;;4.90;3.40;;;21.00;69.80;;;;;;213534;1281;22730;-56
2022/10/23 03:59:42;;;;;;;4.20;2.50;;;21.10;69.20;;;;;;213652;1287;22467;-58
2022/10/23 04:04:46;;;;;;;3.70;2.50;;;21.30;68.40;;;;;;213700;1288;23000;-57
2022/10/23 04:09:50;;;;;;;4.00;2.60;;;21.50;68.40;;;;;;213605;1291;25201;-57
2022/10/23 04:14:53;;;;;;;4.60;3.00;;;21.70;67.60;;;;;;213615;1288;24334;-58
2022/10/23 04:19:57;;;;;;;9.00;3.20;;;21.80;67.10;;;;;;213519;1305;24788;-57
2022/10/23 04:25:02;;;;;;;4.80;3.00;;;21.90;66.90;;;;;;213509;1283;25099;-57
2022/10/23 04:30:08;;;;;;;4.50;2.70;;;21.90;66.60;;;;;;213518;1288;22588;-58
2022/10/23 04:35:14;;;;;;;9.80;3.70;;;22.00;66.40;;;;;;213523;1293;26478;-56
2022/10/23 04:40:18;;;;;;;4.20;2.70;;;22.10;66.30;;;;;;213774;1284;23872;-57
2022/10/23 04:45:22;;;;;;;4.70;2.80;;;22.20;66.00;;;;;;213379;1288;22454;-65
2022/10/23 04:50:27;;;;;;;7.70;2.50;;;22.30;65.80;;;;;;213595;1284;24350;-57
2022/10/23 04:55:54;;;;;;;4.90;2.90;;;22.20;65.90;;;;;;213417;1284;22498;-58
2022/10/23 05:01:24;;;;;;;8.30;3.40;;;22.20;66.40;;;;;;213506;1291;24245;-58
2022/10/23 05:06:28;;;;;;;6.40;2.50;;;22.20;66.00;;;;;;213538;1291;23890;-56
2022/10/23 05:11:47;;;;;;;6.80;3.20;;;22.20;66.10;;;;;;213548;1283;25551;-58
2022/10/23 05:17:14;;;;;;;8.30;3.50;;;22.10;66.20;;;;;;213664;1284;22728;-65
2022/10/23 05:22:23;;;;;;;4.60;2.70;;;22.10;66.20;;;;;;213509;1292;22480;-57
2022/10/23 05:27:28;;;;;;;8.10;3.30;;;22.10;66.70;;;;;;213617;1293;24251;-58
2022/10/23 05:32:32;;;;;;;5.40;2.60;;;22.00;66.30;;;;;;213347;1293;22627;-58
2022/10/23 05:37:40;;;;;;;3.10;2.50;;;22.10;66.80;;;;;;213552;1293;22489;-58
2022/10/23 05:42:49;;;;;;;3.30;2.40;;;22.00;66.30;;;;;;213449;1284;25124;-59
2022/10/23 05:47:56;;;;;;;3.30;2.30;;;22.00;66.40;;;;;;213641;1291;24235;-58
2022/10/23 05:53:32;;;;;;;5.20;2.80;;;22.00;66.30;;;;;;213524;1288;25520;-57
2022/10/23 05:58:53;;;;;;;3.50;2.40;;;22.00;66.40;;;;;;213541;1289;22520;-59
2022/10/23 06:04:09;;;;;;;7.90;3.30;;;22.00;66.80;;;;;;213323;1291;22473;-57
2022/10/23 06:09:33;;;;;;;5.90;2.50;;;22.00;66.70;;;;;;213469;1291;191048;-58
2022/10/23 06:14:37;;;;;;;8.40;3.00;;;22.00;66.30;;;;;;213651;1300;23508;-56
2022/10/23 06:19:42;;;;;;;4.60;2.70;;;22.00;66.40;;;;;;213623;1286;26551;-58
2022/10/23 06:24:54;;;;;;;4.90;2.80;;;22.00;66.30;;;;;;213511;1288;24033;-58
2022/10/23 06:30:00;;;;;;;6.60;3.40;;;22.00;66.30;;;;;;213468;1296;24275;-58
2022/10/23 06:35:07;;;;;;;5.90;2.90;;;22.00;66.30;;;;;;213686;1291;22481;-58
2022/10/23 06:40:32;;;;;;;4.40;2.50;;;22.00;66.50;;;;;;213648;1280;22558;-58
2022/10/23 06:45:43;;;;;;;4.10;2.60;;;22.00;66.10;;;;;;213682;1300;24243;-58
2022/10/23 06:50:49;;;;;;;6.10;3.10;;;22.00;66.10;;;;;;213634;1283;22461;-60
2022/10/23 06:55:59;;;;;;;5.20;2.60;;;22.00;66.10;;;;;;213820;1288;22733;-58
2022/10/23 07:01:10;;;;;;;3.90;2.90;;;22.00;66.00;;;;;;213629;1302;22493;-60
2022/10/23 07:06:14;;;;;;;6.90;3.10;;;22.10;66.40;;;;;;213736;1288;25255;-60
2022/10/23 07:11:18;;;;;;;6.00;3.10;;;22.10;66.10;;;;;;213448;1286;23869;-59
2022/10/23 07:22:25;;;;;;;4.50;2.60;;;22.10;66.20;;;;;;213502;1291;22478;-56
2022/10/23 07:27:47;;;;;;;5.80;3.00;;;22.00;66.50;;;;;;213384;1283;22572;-57
2022/10/23 07:32:58;;;;;;;4.10;2.40;;;22.00;66.30;;;;;;213628;1286;22544;-57
2022/10/23 07:38:16;;;;;;;6.00;2.80;;;22.00;66.30;;;;;;213475;1294;24281;-60
2022/10/23 07:43:26;;;;;;;11.20;3.90;;;22.00;66.60;;;;;;213809;1302;22903;-58
2022/10/23 07:48:30;;;;;;;5.20;2.80;;;21.90;66.80;;;;;;213559;1283;22590;-58
2022/10/23 07:53:37;;;;;;;5.90;2.60;;;21.90;67.00;;;;;;213709;1287;24247;-59
2022/10/23 07:58:49;;;;;;;6.60;2.90;;;21.80;67.10;;;;;;213681;1283;25505;-58
2022/10/23 08:03:55;;;;;;;6.40;2.80;;;21.90;67.10;;;;;;213380;1281;22516;-63
2022/10/23 08:08:59;;;;;;;5.10;2.70;;;21.90;67.10;;;;;;213549;1295;24217;-59
2022/10/23 08:14:09;;;;;;;4.90;2.20;;;21.80;67.10;;;;;;213585;1280;22774;-56
2022/10/23 08:19:17;;;;;;;4.00;2.30;;;21.80;67.20;;;;;;213411;1288;22479;-58
2022/10/23 08:24:25;;;;;;;6.70;2.60;;;21.90;67.20;;;;;;213585;1291;22738;-56
2022/10/23 08:29:28;;;;;;;3.70;2.00;;;21.80;67.30;;;;;;213433;1288;24315;-57
2022/10/23 08:34:40;;;;;;;3.60;2.40;;;21.80;67.30;;;;;;213358;1287;22482;-58
2022/10/23 08:39:48;;;;;;;6.40;2.60;;;21.80;67.60;;;;;;213576;1286;22488;-57
2022/10/23 08:45:10;;;;;;;8.00;3.00;;;21.90;69.80;;;;;;213521;1287;25633;-57
2022/10/23 08:50:33;;;;;;;9.70;3.50;;;21.90;68.50;;;;;;213386;1280;25675;-56
2022/10/23 08:55:44;;;;;;;6.80;2.80;;;22.00;68.10;;;;;;213556;1283;22640;-56
2022/10/23 09:00:51;;;;;;;6.80;2.60;;;22.00;68.10;;;;;;213570;1287;25637;-57
2022/10/23 09:06:07;;;;;;;7.80;2.80;;;22.00;68.10;;;;;;213465;1288;23533;-58
2022/10/23 09:11:14;;;;;;;7.30;2.80;;;22.00;68.70;;;;;;213553;1288;22489;-58
2022/10/23 09:16:26;;;;;;;6.50;3.00;;;22.10;68.70;;;;;;213482;1281;22560;-56
2022/10/23 09:21:31;;;;;;;5.40;2.40;;;22.20;69.50;;;;;;213626;1302;26600;-58
2022/10/23 09:26:49;;;;;;;7.60;3.00;;;22.20;69.00;;;;;;213301;1283;22499;-57
2022/10/23 09:31:59;;;;;;;5.20;2.60;;;22.30;69.50;;;;;;213544;1297;25590;-57
2022/10/23 09:37:43;;;;;;;5.40;2.50;;;22.30;69.40;;;;;;213542;1290;22967;-57
2022/10/23 09:43:02;;;;;;;7.00;2.80;;;22.40;69.00;;;;;;213370;1293;24289;-57
2022/10/23 09:48:13;;;;;;;8.30;2.50;;;22.40;68.70;;;;;;213440;1288;22486;-57
2022/10/23 09:53:24;;;;;;;9.40;2.70;;;22.60;68.50;;;;;;213542;1284;26163;-56
2022/10/23 09:58:41;;;;;;;7.80;3.30;;;22.70;68.10;;;;;;213561;1287;22615;-56
2022/10/23 10:03:56;;;;;;;10.60;3.30;;;22.70;68.20;;;;;;213519;1288;25171;-57
2022/10/23 10:09:24;;;;;;;5.50;2.70;;;22.70;68.20;;;;;;213222;1288;23937;-56
2022/10/23 10:14:54;;;;;;;11.80;3.50;;;22.80;68.10;;;;;;213451;1284;22486;-51
2022/10/23 10:20:28;;;;;;;13.10;3.20;;;22.80;68.50;;;;;;213542;1288;25446;-57
2022/10/23 10:25:43;;;;;;;10.40;3.40;;;22.80;68.10;;;;;;213191;1287;22460;-57
2022/10/23 10:31:18;;;;;;;7.20;2.90;;;22.90;67.90;;;;;;213601;1286;23854;-57
2022/10/23 10:37:03;;;;;;;17.30;4.40;;;23.00;67.40;;;;;;213342;1287;24337;-57
2022/10/23 10:42:34;;;;;;;9.90;3.20;;;23.10;67.20;;;;;;213475;1283;22525;-57
2022/10/23 10:48:05;;;;;;;17.00;4.20;;;23.10;67.50;;;;;;213173;1286;22707;-57
2022/10/23 10:54:01;;;;;;;13.70;3.60;;;23.00;67.60;;;;;;213338;1287;23799;-56
2022/10/23 10:59:29;;;;;;;8.10;2.90;;;23.00;67.70;;;;;;213527;1293;24159;-56
2022/10/23 11:04:47;;;;;;;7.80;3.30;;;23.00;67.60;;;;;;213446;1293;25572;-56
2022/10/23 11:10:01;;;;;;;15.60;4.70;;;23.00;67.40;;;;;;213362;1287;24263;-56
2022/10/23 11:15:20;;;;;;;23.60;5.50;;;23.10;68.10;;;;;;213383;1288;22495;-57
2022/10/23 11:20:35;;;;;;;13.60;4.60;;;23.10;67.50;;;;;;213425;1296;22492;-57
2022/10/23 11:26:22;;;;;;;20.70;5.40;;;23.10;67.40;;;;;;213387;1288;22653;-58
2022/10/23 11:32:16;;;;;;;15.10;5.80;;;23.10;67.60;;;;;;215356;1290;24249;-56
2022/10/23 11:37:25;;;;;;;11.60;4.80;;;23.30;67.10;;;;;;213368;1286;22482;-57
2022/10/23 11:42:49;;;;;;;14.70;5.50;;;23.30;66.60;;;;;;213438;1288;24375;-56
2022/10/23 11:48:33;;;;;;;15.10;5.60;;;23.40;66.40;;;;;;213274;1287;24817;-57
2022/10/23 11:53:48;;;;;;;10.50;4.90;;;23.30;66.40;;;;;;213341;1290;22506;-56
2022/10/23 11:59:30;;;;;;;10.50;4.20;;;23.40;66.00;;;;;;213494;1286;24394;-57
2022/10/23 12:04:54;;;;;;;9.00;4.00;;;23.40;66.30;;;;;;213482;1287;22516;-57
2022/10/23 12:10:07;;;;;;;9.70;4.60;;;23.40;66.20;;;;;;213250;1280;22591;-58
2022/10/23 12:16:00;;;;;;;8.00;4.30;;;23.40;66.10;;;;;;213469;1280;22499;-57
2022/10/23 12:21:40;;;;;;;6.70;4.00;;;23.40;66.30;;;;;;213389;1280;25676;-55
2022/10/23 12:27:31;;;;;;;8.00;4.10;;;23.40;66.00;;;;;;213143;1280;24245;-57
2022/10/23 12:33:34;;;;;;;5.50;3.50;;;23.30;65.90;;;;;;213328;1288;22931;-57
2022/10/23 12:38:49;;;;;;;8.70;4.10;;;23.30;66.40;;;;;;213262;1288;22470;-57
2022/10/23 12:44:18;;;;;;;7.30;3.90;;;23.30;66.30;;;;;;213270;1286;22885;-59
2022/10/23 12:49:33;;;;;;;7.60;4.40;;;23.30;66.10;;;;;;213521;1286;24325;-58
2022/10/23 12:54:49;;;;;;;8.70;4.10;;;23.30;66.10;;;;;;213363;1286;22501;-59
2022/10/23 13:00:05;;;;;;;6.00;3.70;;;23.30;66.10;;;;;;213393;1287;22552;-59
2022/10/23 13:05:18;;;;;;;6.60;3.40;;;23.20;66.10;;;;;;213183;1280;22537;-58
2022/10/23 13:10:29;;;;;;;7.10;4.00;;;23.30;66.40;;;;;;213399;1283;24172;-57
2022/10/23 13:15:45;;;;;;;7.70;3.60;;;23.30;66.00;;;;;;213133;1308;22500;-58
2022/10/23 13:21:00;;;;;;;8.20;3.40;;;23.20;65.90;;;;;;213384;1280;24255;-58
2022/10/23 13:26:29;;;;;;;6.60;3.50;;;23.30;66.00;;;;;;213344;1288;22493;-58
2022/10/23 13:31:36;;;;;;;5.70;3.50;;;23.30;65.90;;;;;;213222;1280;22685;-56
2022/10/23 13:36:50;;;;;;;6.80;3.80;;;23.30;65.90;;;;;;213259;1280;25498;-55
2022/10/23 13:42:10;;;;;;;6.00;3.60;;;23.30;65.80;;;;;;213265;1287;24299;-58
2022/10/23 13:47:15;;;;;;;7.10;3.10;;;23.20;65.90;;;;;;213382;1288;22632;-57
2022/10/23 13:52:22;;;;;;;6.10;3.30;;;23.20;65.90;;;;;;213299;1280;25471;-56
2022/10/23 13:57:26;;;;;;;5.10;3.70;;;23.20;66.20;;;;;;213505;1287;25307;-56
2022/10/23 14:02:29;;;;;;;5.00;3.40;;;23.20;65.90;;;;;;213231;1286;24287;-58
2022/10/23 14:07:34;;;;;;;6.50;3.30;;;23.10;65.90;;;;;;213164;1293;24352;-58
2022/10/23 14:12:39;;;;;;;7.50;4.20;;;23.10;65.90;;;;;;213349;1294;22676;-58
2022/10/23 14:17:45;;;;;;;5.60;3.60;;;23.00;66.00;;;;;;213305;1288;22487;-57
2022/10/23 14:22:54;;;;;;;5.60;3.20;;;23.00;65.90;;;;;;213568;1284;22554;-57
2022/10/23 14:28:00;;;;;;;4.90;3.10;;;23.00;66.00;;;;;;213413;1287;23806;-57
2022/10/23 14:33:03;;;;;;;4.60;3.20;;;23.00;66.10;;;;;;213350;1288;25949;-57
2022/10/23 14:38:09;;;;;;;5.00;3.40;;;23.00;66.00;;;;;;213513;1286;24099;-55
2022/10/23 14:43:15;;;;;;;5.90;3.70;;;22.90;66.10;;;;;;213184;1297;22721;-57
2022/10/23 14:48:19;;;;;;;4.90;3.40;;;22.90;66.10;;;;;;213278;1299;22516;-57
2022/10/23 14:53:22;;;;;;;4.90;3.20;;;22.90;66.50;;;;;;213338;1280;22494;-58
2022/10/23 14:58:27;;;;;;;4.70;2.80;;;22.80;66.20;;;;;;213307;1284;22558;-58
2022/10/23 15:03:31;;;;;;;5.80;3.60;;;22.90;66.20;;;;;;213381;1288;22460;-58
2022/10/23 15:08:35;;;;;;;5.50;3.40;;;22.80;66.20;;;;;;213343;1280;23850;-56
2022/10/23 15:13:43;;;;;;;5.20;3.30;;;22.80;66.30;;;;;;213552;1296;22473;-54
2022/10/23 15:18:48;;;;;;;5.20;3.60;;;22.70;66.70;;;;;;213543;1280;24032;-55
2022/10/23 15:23:53;;;;;;;4.60;3.30;;;22.70;66.40;;;;;;213637;1287;22465;-57
2022/10/23 15:29:00;;;;;;;5.00;3.20;;;22.70;66.50;;;;;;213430;1287;24246;-57
2022/10/23 15:34:04;;;;;;;4.90;3.20;;;22.70;66.50;;;;;;213445;1286;25216;-58
2022/10/23 15:39:09;;;;;;;5.20;3.40;;;22.70;66.70;;;;;;213453;1303;26465;-59
2022/10/23 15:44:17;;;;;;;6.70;3.50;;;22.70;66.50;;;;;;213353;1293;25602;-57
2022/10/23 15:49:24;;;;;;;4.90;3.60;;;22.60;66.60;;;;;;213399;1286;23548;-57
2022/10/23 15:54:29;;;;;;;5.10;3.30;;;22.60;66.60;;;;;;213503;1280;22605;-58
2022/10/23 15:59:35;;;;;;;5.60;4.00;;;22.60;66.60;;;;;;213470;1290;22637;-57
2022/10/23 16:04:57;;;;;;;7.20;3.80;;;22.60;66.30;;;;;;213303;1280;25208;-58
2022/10/23 16:10:04;;;;;;;4.90;3.20;;;22.50;66.70;;;;;;213412;1310;24272;-58
2022/10/23 16:15:09;;;;;;;7.20;4.20;;;22.50;66.70;;;;;;213509;1284;24250;-57
2022/10/23 16:20:13;;;;;;;6.00;4.00;;;22.40;66.60;;;;;;213410;1286;25310;-57
2022/10/23 16:25:17;;;;;;;5.70;3.40;;;22.40;66.60;;;;;;213473;1288;24245;-58
2022/10/23 16:30:23;;;;;;;5.90;4.00;;;22.40;66.50;;;;;;213395;1288;22579;-58
2022/10/23 16:35:29;;;;;;;5.30;4.00;;;22.40;66.60;;;;;;213313;1293;22553;-58
2022/10/23 16:40:40;;;;;;;4.60;3.50;;;22.40;66.80;;;;;;213576;1287;24386;-58
2022/10/23 16:46:19;;;;;;;8.60;4.70;;;22.30;66.40;;;;;;213246;1286;24392;-57
2022/10/23 16:51:30;;;;;;;6.30;3.80;;;22.40;66.40;;;;;;213574;1294;22486;-58
2022/10/23 16:56:35;;;;;;;8.40;4.70;;;22.30;66.30;;;;;;213519;1288;26750;-57
2022/10/23 17:01:39;;;;;;;6.00;4.00;;;22.30;66.30;;;;;;213268;1293;24407;-57
2022/10/23 17:06:46;;;;;;;9.20;5.10;;;22.30;66.20;;;;;;213436;1290;22466;-58
2022/10/23 17:11:52;;;;;;;5.50;4.10;;;22.30;66.60;;;;;;213421;1288;22501;-58
2022/10/23 17:17:00;;;;;;;8.50;5.10;;;22.20;66.50;;;;;;213169;1282;22604;-58
2022/10/23 17:22:09;;;;;;;9.40;5.10;;;22.20;66.10;;;;;;213373;1288;22640;-58
2022/10/23 17:27:13;;;;;;;7.10;4.40;;;22.20;66.10;;;;;;213382;1294;22491;-55
2022/10/23 17:32:20;;;;;;;9.80;4.50;;;22.20;66.20;;;;;;213590;1287;22484;-57
2022/10/23 17:37:29;;;;;;;10.60;4.70;;;22.10;66.10;;;;;;213403;1287;24224;-57
2022/10/23 17:42:33;;;;;;;9.70;4.60;;;22.10;66.10;;;;;;213199;1287;22581;-56
2022/10/23 17:47:40;;;;;;;8.30;4.70;;;22.10;66.10;;;;;;213265;1286;25352;-57
2022/10/23 17:52:46;;;;;;;8.90;5.40;;;22.10;66.10;;;;;;213291;1290;24328;-58
2022/10/23 17:57:51;;;;;;;12.50;5.30;;;22.00;65.90;;;;;;213376;1288;22479;-57
2022/10/23 18:03:11;;;;;;;8.40;4.40;;;22.10;66.30;;;;;;213292;1288;24240;-57
2022/10/23 18:08:22;;;;;;;9.40;4.30;;;22.00;65.90;;;;;;212262;1281;1459557;-57
2022/10/23 18:13:36;;;;;;;10.90;4.50;;;22.00;65.80;;;;;;213568;1288;22497;-59
2022/10/23 18:18:53;;;;;;;10.90;4.80;;;22.10;66.00;;;;;;213136;1288;25461;-56
2022/10/23 18:24:01;;;;;;;18.10;5.80;;;22.10;66.00;;;;;;213140;1281;22477;-58
2022/10/23 18:29:11;;;;;;;17.50;5.80;;;22.10;66.60;;;;;;213193;1287;24409;-60
2022/10/23 18:34:19;;;;;;;10.70;6.10;;;22.10;65.90;;;;;;213455;1294;22481;-59
2022/10/23 18:39:25;;;;;;;13.00;5.00;;;22.10;65.80;;;;;;213264;1287;23704;-52
2022/10/23 18:44:38;;;;;;;15.60;6.10;;;22.00;66.10;;;;;;213384;1282;22546;-58
2022/10/23 18:49:43;;;;;;;12.40;5.10;;;22.10;66.40;;;;;;213246;1288;24898;-58
2022/10/23 18:54:49;;;;;;;15.90;5.20;;;22.20;66.30;;;;;;213286;1280;24280;-57
2022/10/23 18:59:59;;;;;;;17.30;5.40;;;22.10;66.60;;;;;;213363;1281;25481;-58
2022/10/23 19:05:04;;;;;;;14.90;6.50;;;22.20;67.30;;;;;;213499;1287;22524;-59
2022/10/23 19:10:20;;;;;;;15.00;6.30;;;22.20;67.60;;;;;;213221;1280;25612;-57
2022/10/23 19:15:31;;;;;;;19.30;5.90;;;22.20;69.10;;;;;;213324;1283;22508;-59
2022/10/23 19:20:46;;;;;;;15.50;5.80;;;22.20;69.00;;;;;;212928;1286;24265;-54
2022/10/23 19:25:51;;;;;;;17.80;6.80;;;22.10;68.80;;;;;;213269;1281;22492;-56
2022/10/23 19:31:01;;;;;;;12.30;5.30;;;22.20;68.80;;;;;;213535;1288;24312;-57
2022/10/23 19:36:12;;;;;;;14.40;6.40;;;22.10;68.60;;;;;;213002;1288;23474;-58
2022/10/23 19:41:29;;;;;;;13.70;6.20;;;22.10;68.70;;;;;;213071;1288;24225;-57
2022/10/23 19:46:58;;;;;;;12.90;5.30;;;22.20;68.60;;;;;;213142;1282;23442;-58
2022/10/23 19:52:16;;;;;;;14.10;5.40;;;22.20;68.30;;;;;;213272;1284;25372;-58
2022/10/23 19:57:36;;;;;;;14.60;6.30;;;22.10;68.10;;;;;;213200;1280;24219;-59
2022/10/23 20:02:40;;;;;;;20.70;7.00;;;22.20;68.00;;;;;;214230;1290;22490;-57
2022/10/23 20:07:51;;;;;;;14.40;6.00;;;22.10;68.00;;;;;;213331;1294;25364;-58
2022/10/23 20:13:06;;;;;;;16.00;6.40;;;22.10;67.90;;;;;;213070;1293;22524;-58
2022/10/23 20:18:55;;;;;;;10.80;6.00;;;22.10;67.80;;;;;;213709;1287;22516;-56
2022/10/23 20:24:01;;;;;;;15.70;5.60;;;22.00;67.20;;;;;;213270;1295;22443;-58
2022/10/23 20:29:14;;;;;;;20.60;7.30;;;22.00;67.80;;;;;;213371;1304;23851;-58
2022/10/23 20:34:25;;;;;;;21.00;6.50;;;22.00;67.80;;;;;;213308;1288;22502;-58
2022/10/23 20:39:35;;;;;;;13.10;5.10;;;22.00;67.90;;;;;;213100;1288;24264;-59
2022/10/23 20:44:53;;;;;;;16.60;5.70;;;22.00;69.00;;;;;;213319;1294;23002;-58
2022/10/23 20:49:56;;;;;;;14.60;5.60;;;22.10;70.10;;;;;;213307;1288;24397;-57
2022/10/23 20:55:05;;;;;;;14.50;5.40;;;22.10;69.30;;;;;;213362;1284;22717;-56
2022/10/23 21:00:10;;;;;;;22.00;6.10;;;22.10;69.60;;;;;;213289;1284;24307;-58
2022/10/23 21:05:17;;;;;;;18.20;5.90;;;22.00;69.40;;;;;;213410;1288;22533;-59
2022/10/23 21:10:21;;;;;;;21.00;6.30;;;22.00;69.20;;;;;;213385;1279;22503;-56
2022/10/23 21:15:27;;;;;;;15.50;5.70;;;22.00;69.90;;;;;;213323;1284;22989;-56
2022/10/23 21:20:32;;;;;;;11.70;5.30;;;22.00;69.60;;;;;;213325;1288;25278;-58
2022/10/23 21:25:41;;;;;;;13.50;5.20;;;22.10;69.60;;;;;;213463;1288;24026;-56
2022/10/23 21:30:46;;;;;;;15.10;5.10;;;22.00;69.50;;;;;;213595;1284;22584;-58
2022/10/23 21:35:50;;;;;;;12.10;4.60;;;22.10;69.70;;;;;;213410;1290;24533;-56
2022/10/23 21:41:11;;;;;;;15.10;5.00;;;22.00;69.60;;;;;;213462;1280;27610;-55
2022/10/23 21:46:23;;;;;;;9.00;4.70;;;22.00;69.60;;;;;;213481;1287;25458;-58
2022/10/23 21:51:36;;;;;;;16.00;5.20;;;22.00;69.60;;;;;;213442;1290;22645;-57
2022/10/23 21:56:45;;;;;;;8.60;3.90;;;22.00;69.70;;;;;;213550;1281;23111;-58
2022/10/23 22:01:50;;;;;;;13.70;4.50;;;22.00;69.80;;;;;;213415;1304;26557;-57
2022/10/23 22:06:55;;;;;;;16.30;5.10;;;22.00;69.80;;;;;;213446;1290;24331;-58
2022/10/23 22:11:59;;;;;;;18.40;5.60;;;22.00;69.80;;;;;;213532;1281;24278;-57
2022/10/23 22:17:05;;;;;;;18.70;5.50;;;21.90;69.80;;;;;;213540;1280;24390;-58
2022/10/23 22:22:11;;;;;;;16.30;5.20;;;21.90;69.80;;;;;;213584;1296;22485;-58
2022/10/23 22:27:18;;;;;;;19.20;6.00;;;21.90;70.20;;;;;;213359;1285;24252;-57
2022/10/23 22:32:23;;;;;;;18.80;5.80;;;21.90;70.00;;;;;;214054;1288;24901;-59
2022/10/23 22:37:27;;;;;;;18.70;5.80;;;21.90;70.00;;;;;;213497;1286;25708;-59
2022/10/23 22:42:31;;;;;;;12.30;4.60;;;21.90;69.70;;;;;;213560;1288;24225;-58
2022/10/23 22:47:35;;;;;;;14.10;5.20;;;21.90;70.00;;;;;;213401;1283;24257;-60
2022/10/23 22:52:38;;;;;;;17.30;5.60;;;21.90;70.50;;;;;;213220;1281;25382;-58
2022/10/23 22:57:42;;;;;;;13.70;5.10;;;21.90;70.30;;;;;;213473;1288;22644;-59
2022/10/23 23:02:46;;;;;;;13.40;5.40;;;21.90;70.40;;;;;;213589;1288;22507;-59
2022/10/23 23:07:50;;;;;;;9.60;4.40;;;21.80;70.00;;;;;;213726;1288;22647;-60
2022/10/23 23:12:55;;;;;;;12.20;5.00;;;21.80;70.50;;;;;;213786;1286;22957;-61
2022/10/23 23:17:59;;;;;;;12.20;4.70;;;21.80;70.60;;;;;;213660;1287;22863;-61
2022/10/23 23:23:03;;;;;;;14.60;5.60;;;21.70;70.30;;;;;;213674;1287;24422;-61
2022/10/23 23:28:07;;;;;;;8.40;4.10;;;21.70;70.20;;;;;;213527;1280;22545;-60
2022/10/23 23:33:12;;;;;;;9.70;4.50;;;21.70;70.00;;;;;;213591;1291;22479;-59
2022/10/23 23:38:16;;;;;;;5.80;4.10;;;21.70;70.10;;;;;;213594;1288;22612;-61
2022/10/23 23:43:22;;;;;;;12.60;4.80;;;21.70;70.50;;;;;;213692;1283;25354;-61
2022/10/23 23:48:26;;;;;;;10.70;4.40;;;21.70;70.20;;;;;;213687;1291;22476;-60
2022/10/23 23:53:30;;;;;;;8.30;4.30;;;21.60;70.60;;;;;;214535;1288;22523;-60
2022/10/23 23:58:34;;;;;;;6.80;4.10;;;21.70;70.50;;;;;;213608;1303;23880;-60
